createdAt,value
2022-11-28T00:04:39.405Z,3.20
2022-11-28T00:09:42.995Z,3.20
2022-11-28T00:14:47.634Z,3.10
2022-11-28T00:19:50.950Z,3.10
2022-11-28T00:24:54.204Z,3.10
2022-11-28T00:29:59.048Z,3.30
2022-11-28T00:35:02.753Z,3.20
2022-11-28T00:40:07.035Z,3.20
2022-11-28T00:45:12.179Z,3.10
2022-11-28T00:50:15.485Z,3.10
2022-11-28T00:55:19.171Z,3.10
2022-11-28T01:00:24.916Z,3.00
2022-11-28T01:05:28.358Z,3.00
2022-11-28T01:10:31.895Z,3.10
2022-11-28T01:15:37.128Z,3.20
2022-11-28T01:20:40.432Z,3.40
2022-11-28T01:25:43.866Z,3.10
2022-11-28T01:30:48.539Z,3.10
2022-11-28T01:35:59.132Z,3.10
2022-11-28T01:41:02.993Z,3.00
2022-11-28T01:46:07.737Z,2.90
2022-11-28T01:51:11.737Z,3.00
2022-11-28T01:56:19.098Z,2.90
2022-11-28T02:01:26.416Z,2.90
2022-11-28T02:06:30.009Z,2.80
2022-11-28T02:12:04.343Z,2.80
2022-11-28T02:17:17.899Z,2.80
2022-11-28T02:22:26.677Z,2.70
2022-11-28T02:28:05.015Z,2.60
2022-11-28T02:33:18.491Z,2.60
2022-11-28T02:43:34.154Z,2.70
2022-11-28T02:48:47.099Z,2.60
2022-11-28T02:53:52.145Z,2.60
2022-11-28T02:58:55.425Z,2.70
2022-11-28T03:04:20.126Z,2.60
2022-11-28T03:09:42.302Z,2.60
2022-11-28T03:14:53.144Z,2.50
2022-11-28T03:20:11.846Z,2.60
2022-11-28T03:25:24.488Z,2.80
2022-11-28T03:30:34.008Z,2.70
2022-11-28T03:35:44.648Z,2.60
2022-11-28T03:40:52.216Z,2.60
2022-11-28T03:45:59.466Z,2.60
2022-11-28T03:51:09.185Z,2.60
2022-11-28T04:01:28.547Z,2.60
2022-11-28T04:06:40.983Z,2.60
2022-11-28T04:11:50.776Z,2.50
2022-11-28T04:16:59.419Z,2.60
2022-11-28T04:22:09.681Z,2.60
2022-11-28T04:27:18.713Z,2.60
2022-11-28T04:32:23.638Z,2.80
2022-11-28T04:42:38.402Z,2.40
2022-11-28T04:47:42.368Z,2.60
2022-11-28T04:52:54.763Z,2.60
2022-11-28T04:58:02.116Z,2.70
2022-11-28T05:03:06.717Z,2.60
2022-11-28T05:08:11.551Z,2.50
2022-11-28T05:13:15.130Z,2.60
2022-11-28T05:18:18.494Z,2.20
2022-11-28T05:23:23.163Z,2.40
2022-11-28T05:28:26.427Z,2.60
2022-11-28T05:33:30.557Z,2.60
2022-11-28T05:38:35.760Z,2.60
2022-11-28T05:43:39.087Z,2.50
2022-11-28T05:48:42.548Z,2.60
2022-11-28T05:53:47.197Z,2.60
2022-11-28T05:58:50.847Z,2.70
2022-11-28T06:03:59.843Z,2.60
2022-11-28T06:09:06.114Z,2.50
2022-11-28T06:14:09.680Z,3.00
2022-11-28T06:19:14.216Z,2.40
2022-11-28T06:24:19.232Z,2.40
2022-11-28T06:29:22.518Z,3.90
2022-11-28T06:34:26.065Z,2.20
2022-11-28T06:39:31.980Z,2.70
2022-11-28T06:44:35.530Z,2.50
2022-11-28T06:49:38.826Z,2.30
2022-11-28T06:54:43.652Z,2.10
2022-11-28T06:59:46.913Z,2.50
2022-11-28T07:04:50.365Z,2.70
2022-11-28T07:09:55.194Z,2.60
2022-11-28T07:14:58.407Z,2.70
2022-11-28T07:20:01.747Z,2.60
2022-11-28T07:30:11.294Z,2.60
2022-11-28T07:35:14.545Z,2.30
2022-11-28T07:40:20.703Z,2.70
2022-11-28T07:45:32.985Z,2.60
2022-11-28T07:50:47.365Z,2.40
2022-11-28T07:55:52.085Z,2.40
2022-11-28T08:06:03.168Z,2.70
2022-11-28T08:16:15.028Z,2.70
2022-11-28T08:21:21.035Z,2.90
2022-11-28T08:31:36.298Z,2.50
2022-11-28T08:36:39.782Z,2.70
2022-11-28T08:41:45.658Z,2.80
2022-11-28T08:46:49.373Z,3.00
2022-11-28T08:51:53.035Z,2.50
2022-11-28T08:56:57.633Z,2.80
2022-11-28T09:02:00.904Z,2.70
2022-11-28T09:07:04.218Z,2.70
2022-11-28T09:12:09.342Z,7.80
2022-11-28T09:17:12.662Z,3.60
2022-11-28T09:22:15.980Z,3.80
2022-11-28T09:27:20.611Z,3.70
2022-11-28T09:32:23.881Z,3.80
2022-11-28T09:37:28.972Z,3.70
2022-11-28T09:42:38.115Z,4.00
2022-11-28T09:47:43.762Z,3.60
2022-11-28T09:52:53.565Z,6.50
2022-11-28T09:57:58.454Z,4.10
2022-11-28T10:03:20.906Z,4.20
2022-11-28T10:08:35.959Z,4.20
2022-11-28T10:19:46.160Z,4.40
2022-11-28T10:24:45.684Z,4.30
2022-11-28T10:29:53.348Z,4.50
2022-11-28T10:35:02.567Z,4.60
2022-11-28T10:40:19.029Z,4.50
2022-11-28T10:45:28.834Z,4.50
2022-11-28T10:50:40.189Z,4.80
2022-11-28T10:55:57.728Z,4.90
2022-11-28T11:01:03.725Z,5.10
2022-11-28T11:06:08.398Z,5.10
2022-11-28T11:11:23.568Z,4.90
2022-11-28T11:16:47.917Z,4.80
2022-11-28T11:22:00.795Z,4.90
2022-11-28T11:27:06.885Z,4.90
2022-11-28T11:32:21.812Z,4.70
2022-11-28T11:37:33.909Z,4.70
2022-11-28T11:42:37.395Z,4.50
2022-11-28T11:47:45.878Z,4.60
2022-11-28T11:53:02.794Z,4.70
2022-11-28T11:58:06.734Z,4.70
2022-11-28T12:03:20.747Z,4.80
2022-11-28T12:08:32.871Z,4.90
2022-11-28T12:13:36.285Z,4.90
2022-11-28T12:18:52.965Z,5.10
2022-11-28T12:24:08.168Z,5.40
2022-11-28T12:29:34.256Z,5.60
2022-11-28T12:34:51.195Z,5.10
2022-11-28T12:40:04.185Z,4.30
2022-11-28T12:45:23.490Z,5.50
2022-11-28T12:50:34.087Z,5.70
2022-11-28T12:55:45.927Z,3.80
2022-11-28T13:00:54.982Z,5.40
2022-11-28T13:06:12.500Z,5.50
2022-11-28T13:11:28.303Z,5.10
2022-11-28T13:16:37.166Z,5.10
2022-11-28T13:21:46.849Z,5.00
2022-11-28T13:26:59.148Z,5.40
2022-11-28T13:32:08.182Z,5.40
2022-11-28T13:43:06.422Z,4.90
2022-11-28T13:54:43.436Z,5.00
2022-11-28T13:59:51.658Z,4.90
2022-11-28T14:04:55.200Z,4.90
2022-11-28T14:10:13.389Z,4.90
2022-11-28T14:15:28.875Z,4.90
2022-11-28T14:20:47.196Z,4.90
2022-11-28T14:25:55.026Z,4.80
2022-11-28T14:31:09.504Z,4.90
2022-11-28T14:36:29.621Z,4.80
2022-11-28T14:42:30.535Z,4.70
2022-11-28T14:47:42.546Z,4.70
2022-11-28T14:52:48.073Z,4.60
2022-11-28T14:57:58.936Z,4.40
2022-11-28T15:03:18.840Z,4.50
2022-11-28T15:08:50.106Z,4.40
2022-11-28T15:14:16.049Z,4.30
2022-11-28T15:19:26.096Z,4.10
2022-11-28T15:24:32.644Z,2.60
2022-11-28T15:29:37.940Z,4.30
2022-11-28T15:34:42.473Z,4.00
2022-11-28T15:39:48.697Z,4.10
2022-11-28T15:44:57.860Z,4.00
2022-11-28T15:50:03.469Z,4.00
2022-11-28T15:55:16.744Z,6.20
2022-11-28T16:00:24.403Z,4.00
2022-11-28T16:05:28.753Z,3.90
2022-11-28T16:10:36.475Z,3.90
2022-11-28T16:15:44.710Z,3.90
2022-11-28T16:20:51.434Z,3.90
2022-11-28T16:26:01.549Z,3.80
2022-11-28T16:31:13.383Z,3.80
2022-11-28T16:36:22.741Z,3.80
2022-11-28T16:41:27.259Z,3.80
2022-11-28T16:46:35.986Z,3.80
2022-11-28T16:51:41.120Z,3.80
2022-11-28T16:56:45.510Z,3.70
2022-11-28T17:01:53.632Z,3.70
2022-11-28T17:06:59.235Z,3.70
2022-11-28T17:12:05.769Z,3.70
2022-11-28T17:17:14.829Z,3.80
2022-11-28T17:22:20.947Z,3.60
2022-11-28T17:27:24.259Z,3.70
2022-11-28T17:32:28.923Z,3.70
2022-11-28T17:37:32.172Z,3.70
2022-11-28T17:42:35.465Z,3.70
2022-11-28T17:47:40.185Z,3.70
2022-11-28T17:52:43.605Z,3.70
2022-11-28T17:57:47.371Z,3.70
2022-11-28T18:02:52.455Z,3.60
2022-11-28T18:07:55.818Z,3.70
2022-11-28T18:12:59.142Z,3.60
2022-11-28T18:18:04.459Z,3.70
2022-11-28T18:23:07.864Z,3.50
2022-11-28T18:28:17.289Z,3.70
2022-11-28T18:33:24.342Z,3.70
2022-11-28T18:38:27.791Z,3.60
2022-11-28T18:43:31.303Z,3.60
2022-11-28T18:48:38.967Z,3.70
2022-11-28T18:53:42.841Z,3.70
2022-11-28T18:58:47.933Z,3.60
2022-11-28T19:03:54.585Z,3.60
2022-11-28T19:09:00.437Z,3.60
2022-11-28T19:14:04.198Z,3.60
2022-11-28T19:19:08.871Z,3.60
2022-11-28T19:24:12.958Z,3.50
2022-11-28T19:29:16.302Z,3.50
2022-11-28T19:34:21.341Z,3.60
2022-11-28T19:39:26.509Z,3.50
2022-11-28T19:44:30.718Z,3.50
2022-11-28T19:49:35.999Z,3.50
2022-11-28T19:54:39.387Z,3.60
2022-11-28T19:59:44.357Z,3.50
2022-11-28T20:04:49.387Z,3.50
2022-11-28T20:09:52.698Z,3.60
2022-11-28T20:14:56.163Z,3.60
2022-11-28T20:20:01.077Z,3.50
2022-11-28T20:25:04.688Z,3.50
2022-11-28T20:30:10.505Z,3.50
2022-11-28T20:35:15.570Z,3.50
2022-11-28T20:40:19.361Z,3.50
2022-11-28T20:45:22.736Z,3.40
2022-11-28T20:50:27.652Z,3.50
2022-11-28T20:55:31.218Z,3.60
2022-11-28T21:00:34.502Z,3.40
2022-11-28T21:05:39.188Z,3.40
2022-11-28T21:10:43.974Z,3.60
2022-11-28T21:15:47.535Z,3.50
2022-11-28T21:20:52.985Z,3.40
2022-11-28T21:25:56.326Z,3.30
2022-11-28T21:30:59.687Z,-0.30
2022-11-28T21:36:06.424Z,3.50
2022-11-28T21:41:10.072Z,3.50
2022-11-28T21:46:14.074Z,3.40
2022-11-28T21:51:19.674Z,3.40
2022-11-28T21:56:23.004Z,3.40
2022-11-28T22:01:26.411Z,3.40
2022-11-28T22:06:31.274Z,3.40
2022-11-28T22:11:36.261Z,3.40
2022-11-28T22:16:40.362Z,3.50
2022-11-28T22:21:53.833Z,3.50
2022-11-28T22:26:57.855Z,3.50
2022-11-28T22:32:01.443Z,3.50
2022-11-28T22:37:06.137Z,3.50
2022-11-28T22:42:10.138Z,3.50
2022-11-28T22:52:20.263Z,3.50
2022-11-28T22:57:23.731Z,3.40
2022-11-28T23:02:27.400Z,3.40
2022-11-28T23:07:32.576Z,3.40
2022-11-28T23:12:36.297Z,3.40
2022-11-28T23:17:41.179Z,3.50
2022-11-28T23:22:45.947Z,3.50
2022-11-28T23:27:49.383Z,3.50
2022-11-28T23:32:52.983Z,3.50
2022-11-28T23:37:57.764Z,3.60
2022-11-28T23:43:01.155Z,3.50
2022-11-28T23:48:04.531Z,3.40
2022-11-28T23:53:09.181Z,3.60
2022-11-28T23:58:12.596Z,3.60
